^^
Grace C. Lehan Memorial Weather Station Historical Data
Daily Summary for January 15, 2022 Units:  Metric    English   Both
Daily Weekly Monthly Yearly
  High: Low: Average:
Temperature: -7.4 °C -13.7 °C -10.8 °C
Dew Point: -18.7 °C -22 °C -20.4 °C
Humidity: 61.5% 34.3% 46%
Wind Speed: 16.9km/h 0km/h 7.7km/h
Wind Gust: 38.6km/h - -
Wind- - NW
Pressure: 1030.7 hPa 1013.1 hPa -
Precipitation: 0 mm    
 
 
Tabular Data for January 15, 2022
Time Temperature Dew Point Pressure Wind Wind Speed Wind Gust Humidity Rainfall Rate (Hourly) solar
00:04 -9 °C -18.8 °C 1013.1 hPa NW 16.9 km/h 38.6 km/h 45% 0 mm 0 W/m2
00:09 -9.1 °C -18.8 °C 1013.1 hPa NW 15.6 km/h 38.6 km/h 45% 0 mm 0 W/m2
00:14 -9.2 °C -18.8 °C 1013.1 hPa NNW 12.2 km/h 38.6 km/h 45.5% 0 mm 0 W/m2
00:19 -9.2 °C -18.7 °C 1013.1 hPa NW 13.4 km/h 38.6 km/h 46% 0 mm 0 W/m2
00:24 -9.3 °C -18.8 °C 1013.1 hPa NW 13 km/h 38.6 km/h 46% 0 mm 0 W/m2
00:29 -9.4 °C -18.9 °C 1013.1 hPa NW 16.1 km/h 38.6 km/h 46% 0 mm 0 W/m2
00:34 -9.6 °C -19 °C 1013.1 hPa NW 14.6 km/h 38.6 km/h 46% 0 mm 0 W/m2
00:39 -9.6 °C -18.9 °C 1013.1 hPa NW 10.5 km/h 27.4 km/h 46.8% 0 mm 0 W/m2
00:44 -9.7 °C -18.9 °C 1013.1 hPa NW 14.3 km/h 29 km/h 47% 0 mm 0 W/m2
00:49 -9.8 °C -18.9 °C 1013.4 hPa NW 14 km/h 37 km/h 47% 0 mm 0 W/m2
00:54 -9.8 °C -19.1 °C 1013.4 hPa NW 14.8 km/h 37 km/h 47% 0 mm 0 W/m2
00:59 -9.9 °C -19.1 °C 1013.4 hPa NW 14.5 km/h 37 km/h 47% 0 mm 0 W/m2
01:04 -10 °C -19.2 °C 1013.4 hPa NW 11.9 km/h 37 km/h 47% 0 mm 0 W/m2
01:09 -10.1 °C -19.3 °C 1013.8 hPa NW 14 km/h 30.6 km/h 46.6% 0 mm 0 W/m2
01:14 -10.2 °C -19.3 °C 1013.8 hPa NW 7.7 km/h 30.6 km/h 46.9% 0 mm 0 W/m2
01:19 -10.2 °C -19.4 °C 1013.8 hPa NW 10 km/h 30.6 km/h 47% 0 mm 0 W/m2
01:24 -10.3 °C -19.3 °C 1013.8 hPa NNW 10.8 km/h 30.6 km/h 47.7% 0 mm 0 W/m2
01:29 -10.3 °C -19.3 °C 1013.8 hPa NW 9.7 km/h 30.6 km/h 47.8% 0 mm 0 W/m2
01:34 -10.4 °C -19.3 °C 1014.1 hPa NW 10.5 km/h 30.6 km/h 48% 0 mm 0 W/m2
01:39 -10.4 °C -19.3 °C 1014.4 hPa NW 6.6 km/h 19.3 km/h 48% 0 mm 0 W/m2
01:44 -10.5 °C -19.4 °C 1014.4 hPa WNW 5.3 km/h 19.3 km/h 48% 0 mm 0 W/m2
01:49 -10.5 °C -19.3 °C 1014.4 hPa NW 10.3 km/h 24.1 km/h 48.5% 0 mm 0 W/m2
01:54 -10.6 °C -19.4 °C 1014.4 hPa NW 7.9 km/h 24.1 km/h 48% 0 mm 0 W/m2
01:59 -10.6 °C -19.5 °C 1014.8 hPa NW 9.2 km/h 24.1 km/h 47.7% 0 mm 0 W/m2
02:04 -10.6 °C -19.4 °C 1014.8 hPa NW 6.9 km/h 24.1 km/h 48.2% 0 mm 0 W/m2
02:09 -10.7 °C -19.4 °C 1014.8 hPa NW 8 km/h 16.1 km/h 48.7% 0 mm 0 W/m2
02:14 -10.7 °C -19.6 °C 1015.1 hPa NW 11.3 km/h 30.6 km/h 48.1% 0 mm 0 W/m2
02:19 -10.8 °C -19.7 °C 1015.1 hPa NW 11.6 km/h 30.6 km/h 48% 0 mm 0 W/m2
02:24 -10.8 °C -19.7 °C 1015.5 hPa NW 13.5 km/h 30.6 km/h 48% 0 mm 0 W/m2
02:29 -10.9 °C -19.8 °C 1015.5 hPa NW 14.6 km/h 30.6 km/h 47.7% 0 mm 0 W/m2
02:34 -10.9 °C -19.8 °C 1015.5 hPa NW 16.9 km/h 30.6 km/h 47.9% 0 mm 0 W/m2
02:39 -11 °C -20.1 °C 1015.5 hPa NNW 12.2 km/h 27.4 km/h 47.1% 0 mm 0 W/m2
02:44 -11.1 °C -19.9 °C 1015.5 hPa NNW 14 km/h 27.4 km/h 48% 0 mm 0 W/m2
02:49 -11.1 °C -20.1 °C 1015.5 hPa NW 10.3 km/h 27.4 km/h 47.5% 0 mm 0 W/m2
02:54 -11.2 °C -20 °C 1015.8 hPa NW 14.5 km/h 27.4 km/h 48% 0 mm 0 W/m2
02:59 -11.2 °C -20.1 °C 1015.8 hPa NW 11.6 km/h 30.6 km/h 48% 0 mm 0 W/m2
03:04 -11.2 °C -20.1 °C 1015.8 hPa NNW 8.9 km/h 30.6 km/h 48% 0 mm 0 W/m2
03:09 -11.3 °C -20.1 °C 1016.1 hPa NW 16.4 km/h 25.7 km/h 48% 0 mm 0 W/m2
03:14 -11.3 °C -20.2 °C 1016.1 hPa NNW 10.9 km/h 25.7 km/h 48% 0 mm 0 W/m2
03:19 -11.4 °C -20.2 °C 1016.5 hPa NW 8.9 km/h 25.7 km/h 48% 0 mm 0 W/m2
03:24 -11.4 °C -20.2 °C 1016.5 hPa NNW 5.1 km/h 25.7 km/h 48.1% 0 mm 0 W/m2
03:29 -11.5 °C -20.1 °C 1016.5 hPa NW 8 km/h 25.7 km/h 49% 0 mm 0 W/m2
03:34 -11.6 °C -20.1 °C 1016.8 hPa NW 6 km/h 25.7 km/h 49% 0 mm 0 W/m2
03:39 -11.6 °C -20.1 °C 1016.8 hPa NW 10.5 km/h 19.3 km/h 49.3% 0 mm 0 W/m2
03:44 -11.7 °C -20.1 °C 1016.8 hPa NW 12.2 km/h 25.7 km/h 50% 0 mm 0 W/m2
03:49 -11.8 °C -20.2 °C 1016.8 hPa NW 10.3 km/h 25.7 km/h 49.7% 0 mm 0 W/m2
03:54 -11.9 °C -20.4 °C 1017.2 hPa NNW 5.6 km/h 25.7 km/h 49.5% 0 mm 0 W/m2
03:59 -12 °C -20.3 °C 1017.5 hPa NW 6.4 km/h 25.7 km/h 50.2% 0 mm 0 W/m2
04:00 -12.1 °C -20.1 °C 1017.5 hPa NW 3.2 km/h 25.7 km/h 51% 0 mm 0 W/m2
04:09 -12.2 °C -20.2 °C 1017.5 hPa NW 6.3 km/h 24.1 km/h 51% 0 mm 0 W/m2
04:14 -12.2 °C -20.3 °C 1017.5 hPa NW 11.3 km/h 27.4 km/h 51% 0 mm 0 W/m2
04:19 -12.3 °C -20.4 °C 1017.5 hPa NNW 12.7 km/h 29 km/h 50.7% 0 mm 0 W/m2
04:24 -12.3 °C -20.6 °C 1017.5 hPa NNW 11.9 km/h 29 km/h 50% 0 mm 0 W/m2
04:29 -12.4 °C -20.8 °C 1017.5 hPa NNW 14.5 km/h 29 km/h 49.6% 0 mm 0 W/m2
04:34 -12.5 °C -21 °C 1017.8 hPa NW 10 km/h 29 km/h 49% 0 mm 0 W/m2
04:39 -12.6 °C -21.1 °C 1017.8 hPa NW 10.5 km/h 29 km/h 49% 0 mm 0 W/m2
04:44 -12.6 °C -20.9 °C 1017.8 hPa NNW 10.6 km/h 29 km/h 49.5% 0 mm 0 W/m2
04:49 -12.7 °C -21.1 °C 1017.8 hPa NNW 11.3 km/h 29 km/h 49% 0 mm 0 W/m2
04:54 -12.7 °C -21 °C 1017.8 hPa NW 8.4 km/h 29 km/h 49.8% 0 mm 0 W/m2
04:59 -12.7 °C -21 °C 1018.2 hPa NW 13.4 km/h 29 km/h 50% 0 mm 0 W/m2
05:04 -12.8 °C -21.1 °C 1018.2 hPa NW 14.2 km/h 29 km/h 50% 0 mm 0 W/m2
05:09 -12.9 °C -21.2 °C 1018.5 hPa NW 12.9 km/h 27.4 km/h 49.8% 0 mm 0 W/m2
05:14 -12.9 °C -21.2 °C 1018.5 hPa NW 11.4 km/h 27.4 km/h 50% 0 mm 0 W/m2
05:19 -13 °C -21.2 °C 1018.5 hPa NW 6.9 km/h 27.4 km/h 50.1% 0 mm 0 W/m2
05:24 -13 °C -20.9 °C 1018.8 hPa NW 7.7 km/h 27.4 km/h 51.3% 0 mm 0 W/m2
05:29 -13.1 °C -21 °C 1018.8 hPa NW 10.1 km/h 27.4 km/h 51.3% 0 mm 0 W/m2
05:34 -13.1 °C -21.1 °C 1018.8 hPa NNW 8.9 km/h 27.4 km/h 51% 0 mm 0 W/m2
05:39 -13.1 °C -21.1 °C 1019.2 hPa NNW 7.2 km/h 22.5 km/h 51% 0 mm 0 W/m2
05:44 -13.1 °C -21.1 °C 1019.2 hPa NW 5 km/h 22.5 km/h 51% 0 mm 0 W/m2
05:49 -13.2 °C -20.9 °C 1019.2 hPa NW 6.3 km/h 22.5 km/h 52% 0 mm 0 W/m2
05:54 -13.2 °C -20.9 °C 1019.2 hPa NW 6.9 km/h 22.5 km/h 52% 0 mm 0 W/m2
05:59 -13.2 °C -20.9 °C 1019.5 hPa NW 9.7 km/h 22.5 km/h 52% 0 mm 0 W/m2
06:04 -13.2 °C -21.1 °C 1019.5 hPa NNW 7.2 km/h 22.5 km/h 51.3% 0 mm 0 W/m2
06:09 -13.2 °C -21.1 °C 1019.5 hPa NNW 5.5 km/h 16.1 km/h 51.8% 0 mm 0 W/m2
06:14 -13.2 °C -21 °C 1019.5 hPa NW 7.6 km/h 17.7 km/h 51.9% 0 mm 0 W/m2
06:19 -13.2 °C -21.1 °C 1019.9 hPa NW 6.9 km/h 17.7 km/h 51.6% 0 mm 0 W/m2
06:24 -13.2 °C -21.1 °C 1019.9 hPa NNW 5 km/h 19.3 km/h 51.3% 0 mm 0 W/m2
06:29 -13.2 °C -21.2 °C 1020.2 hPa NNW 4.7 km/h 19.3 km/h 51% 0 mm 0 W/m2
06:34 -13.2 °C -21.2 °C 1020.2 hPa NW 8.2 km/h 20.9 km/h 51% 0 mm 0 W/m2
06:39 -13.2 °C -21.2 °C 1020.5 hPa NW 9 km/h 24.1 km/h 50.9% 0 mm 0 W/m2
06:44 -13.2 °C -21.4 °C 1020.5 hPa NNW 9.2 km/h 24.1 km/h 50.2% 0 mm 0 W/m2
06:49 -13.3 °C -21.5 °C 1020.5 hPa NW 11.4 km/h 24.1 km/h 50% 0 mm 0 W/m2
06:54 -13.3 °C -21.6 °C 1020.9 hPa NW 8.7 km/h 24.1 km/h 50% 0 mm 0 W/m2
06:59 -13.4 °C -21.6 °C 1020.9 hPa NNW 6.6 km/h 24.1 km/h 50% 0 mm 0 W/m2
07:04 -13.5 °C -21.7 °C 1020.9 hPa NW 10.9 km/h 25.7 km/h 50% 0 mm 0 W/m2
07:09 -13.6 °C -21.7 °C 1020.9 hPa NW 9.3 km/h 25.7 km/h 50% 0 mm 0 W/m2
07:14 -13.6 °C -21.8 °C 1020.9 hPa NW 11.7 km/h 25.7 km/h 50% 0 mm 0 W/m2
07:19 -13.7 °C -21.8 °C 1021.2 hPa NW 8.9 km/h 25.7 km/h 50% 0 mm 7 W/m2
07:24 -13.7 °C -21.8 °C 1021.2 hPa NW 7.6 km/h 25.7 km/h 50% 0 mm 11 W/m2
07:29 -13.7 °C -21.7 °C 1021.2 hPa NW 8.7 km/h 30.6 km/h 50.6% 0 mm 12 W/m2
07:34 -13.7 °C -21.8 °C 1021.2 hPa NW 8.7 km/h 30.6 km/h 50% 0 mm 16 W/m2
07:39 -13.7 °C -21.8 °C 1021.6 hPa NNW 9.3 km/h 22.5 km/h 50% 0 mm 19 W/m2
07:44 -13.7 °C -21.9 °C 1021.6 hPa NW 12.2 km/h 25.7 km/h 49.7% 0 mm 23 W/m2
07:49 -13.6 °C -22 °C 1021.6 hPa NW 8.7 km/h 25.7 km/h 49% 0 mm 39 W/m2
07:54 -13.4 °C -21.9 °C 1021.6 hPa NW 7.9 km/h 25.7 km/h 49% 0 mm 42 W/m2
07:59 -13.2 °C -21.7 °C 1021.6 hPa NNW 6.4 km/h 25.7 km/h 49% 0 mm 46 W/m2
08:00 -13.1 °C -21.6 °C 1021.6 hPa NNW 3.2 km/h 25.7 km/h 49% 0 mm 42 W/m2
08:09 -12.7 °C -21.3 °C 1021.9 hPa NW 11.3 km/h 22.5 km/h 48.2% 0 mm 83 W/m2
08:14 -12.4 °C -21.3 °C 1021.9 hPa NW 11.6 km/h 25.7 km/h 47.2% 0 mm 51 W/m2
08:19 -12.3 °C -21.6 °C 1021.9 hPa NNW 8.5 km/h 25.7 km/h 45.7% 0 mm 93 W/m2
08:24 -12.1 °C -21.5 °C 1021.9 hPa NNW 11.9 km/h 25.7 km/h 45.5% 0 mm 142 W/m2
08:29 -11.9 °C -21.5 °C 1022.2 hPa NNW 6.6 km/h 25.7 km/h 44.9% 0 mm 181 W/m2
08:34 -11.6 °C -21.1 °C 1022.2 hPa NNW 7.7 km/h 25.7 km/h 45.2% 0 mm 218 W/m2
08:39 -11.2 °C -20.9 °C 1022.2 hPa NW 10.9 km/h 29 km/h 44.3% 0 mm 234 W/m2
08:44 -10.9 °C -21.1 °C 1022.6 hPa NNW 10 km/h 29 km/h 42.8% 0 mm 243 W/m2
08:49 -10.8 °C -21.2 °C 1022.6 hPa NNW 10.1 km/h 29 km/h 41.9% 0 mm 250 W/m2
08:54 -10.6 °C -21.2 °C 1022.6 hPa NW 10 km/h 29 km/h 41.6% 0 mm 260 W/m2
08:59 -10.6 °C -21.2 °C 1022.9 hPa NNW 12.6 km/h 35.4 km/h 41.2% 0 mm 267 W/m2
09:04 -10.6 °C -21.3 °C 1022.9 hPa NW 12.1 km/h 35.4 km/h 40.8% 0 mm 278 W/m2
09:09 -10.5 °C -21.3 °C 1022.9 hPa NW 11.4 km/h 24.1 km/h 40.9% 0 mm 281 W/m2
09:14 -10.4 °C -21.2 °C 1022.9 hPa NNW 8 km/h 24.1 km/h 40.7% 0 mm 255 W/m2
09:19 -10.4 °C -21.2 °C 1022.9 hPa NNW 12.6 km/h 30.6 km/h 40.5% 0 mm 225 W/m2
09:24 -10.6 °C -21.6 °C 1022.9 hPa NNW 10.9 km/h 30.6 km/h 39.8% 0 mm 204 W/m2
09:29 -10.7 °C -21.7 °C 1023.2 hPa NW 7.6 km/h 30.6 km/h 40% 0 mm 211 W/m2
09:34 -10.7 °C -21.4 °C 1023.6 hPa NNW 11.4 km/h 30.6 km/h 40.8% 0 mm 188 W/m2
09:39 -10.7 °C -21.7 °C 1023.6 hPa NW 14.6 km/h 25.7 km/h 40% 0 mm 188 W/m2
09:44 -10.9 °C -21.8 °C 1023.6 hPa NNW 14.6 km/h 35.4 km/h 40.2% 0 mm 227 W/m2
09:49 -10.9 °C -21.8 °C 1023.6 hPa NNW 11.9 km/h 35.4 km/h 40.3% 0 mm 221 W/m2
09:54 -10.9 °C -21.7 °C 1023.6 hPa NNW 15.6 km/h 35.4 km/h 40.8% 0 mm 160 W/m2
09:59 -10.9 °C -21.5 °C 1023.6 hPa NNW 7.6 km/h 35.4 km/h 41.3% 0 mm 160 W/m2
10:04 -10.8 °C -21.2 °C 1023.6 hPa North 10.3 km/h 35.4 km/h 41.9% 0 mm 183 W/m2
10:09 -10.6 °C -21.2 °C 1023.6 hPa NNW 9 km/h 27.4 km/h 41.3% 0 mm 158 W/m2
10:14 -10.5 °C -21.3 °C 1023.6 hPa NNW 11.4 km/h 30.6 km/h 40.8% 0 mm 120 W/m2
10:19 -10.5 °C -21.3 °C 1023.9 hPa NNW 12.6 km/h 30.6 km/h 40.7% 0 mm 299 W/m2
10:24 -10.3 °C -21.2 °C 1023.9 hPa NNW 6.9 km/h 30.6 km/h 40.7% 0 mm 318 W/m2
10:29 -10 °C -20.7 °C 1024.3 hPa NNW 15.8 km/h 30.6 km/h 41.2% 0 mm 346 W/m2
10:34 -9.9 °C -21.4 °C 1023.9 hPa NNW 15.6 km/h 30.6 km/h 38.5% 0 mm 418 W/m2
10:39 -9.8 °C -21 °C 1023.9 hPa NNW 10.9 km/h 30.6 km/h 39.4% 0 mm 446 W/m2
10:44 -9.5 °C -20.6 °C 1023.9 hPa NNW 9.7 km/h 30.6 km/h 40% 0 mm 445 W/m2
10:49 -9.1 °C -20.4 °C 1023.6 hPa NNW 13.5 km/h 30.6 km/h 39.4% 0 mm 448 W/m2
10:54 -9 °C -20.7 °C 1023.6 hPa NNW 12.7 km/h 30.6 km/h 38% 0 mm 431 W/m2
10:59 -9 °C -20.6 °C 1023.2 hPa NW 10.1 km/h 30.6 km/h 38.5% 0 mm 461 W/m2
11:04 -8.8 °C -20.5 °C 1023.2 hPa NW 10.5 km/h 30.6 km/h 38.4% 0 mm 431 W/m2
11:09 -8.8 °C -20.6 °C 1022.9 hPa NNW 12.4 km/h 27.4 km/h 38% 0 mm 243 W/m2
11:14 -8.8 °C -20.6 °C 1023.2 hPa NW 10.3 km/h 27.4 km/h 37.6% 0 mm 243 W/m2
11:19 -8.7 °C -20.2 °C 1023.2 hPa NNW 8.5 km/h 27.4 km/h 38.9% 0 mm 445 W/m2
11:24 -8.6 °C -20.4 °C 1023.2 hPa NNW 6.9 km/h 27.4 km/h 37.8% 0 mm 417 W/m2
11:29 -8.5 °C -19.9 °C 1023.2 hPa NNW 7.9 km/h 27.4 km/h 39% 0 mm 230 W/m2
11:34 -8.4 °C -20.2 °C 1023.2 hPa NW 14.3 km/h 33.8 km/h 37.9% 0 mm 204 W/m2
11:39 -8.4 °C -20.4 °C 1023.6 hPa NNW 13 km/h 33.8 km/h 37.5% 0 mm 338 W/m2
11:44 -8.4 °C -20.2 °C 1023.6 hPa NW 9.8 km/h 33.8 km/h 38% 0 mm 476 W/m2
11:49 -8.4 °C -20.4 °C 1023.6 hPa NW 12.9 km/h 33.8 km/h 37.4% 0 mm 406 W/m2
11:54 -8.4 °C -20.3 °C 1023.6 hPa NW 7.1 km/h 33.8 km/h 37.6% 0 mm 95 W/m2
11:59 -8.3 °C -20.3 °C 1023.2 hPa NNW 14.5 km/h 33.8 km/h 37.3% 0 mm 269 W/m2
12:00 -8.3 °C -20.4 °C 1023.2 hPa NNW 9.7 km/h 33.8 km/h 37% 0 mm 120 W/m2
12:09 -8.3 °C -20.7 °C 1023.2 hPa NNW 10.8 km/h 25.7 km/h 36.1% 0 mm 445 W/m2
12:14 -8.1 °C -20.2 °C 1023.2 hPa North 4.8 km/h 25.7 km/h 37% 0 mm 209 W/m2
12:19 -7.9 °C -19.8 °C 1023.2 hPa North 8.9 km/h 25.7 km/h 37.5% 0 mm 287 W/m2
12:24 -7.7 °C -19.9 °C 1023.2 hPa NNW 7.1 km/h 25.7 km/h 36.7% 0 mm 278 W/m2
12:29 -7.7 °C -19.8 °C 1023.6 hPa NNW 10.6 km/h 25.7 km/h 37% 0 mm 223 W/m2
12:34 -7.7 °C -20.1 °C 1023.6 hPa NNW 7.4 km/h 25.7 km/h 36.4% 0 mm 288 W/m2
12:39 -7.7 °C -19.9 °C 1023.9 hPa North 6.3 km/h 24.1 km/h 36.8% 0 mm 258 W/m2
12:44 -7.6 °C -19.7 °C 1023.6 hPa NNW 5.6 km/h 24.1 km/h 37.1% 0 mm 181 W/m2
12:49 -7.7 °C -19.8 °C 1023.6 hPa NW 6.3 km/h 24.1 km/h 37.2% 0 mm 120 W/m2
12:54 -7.7 °C -19.9 °C 1023.9 hPa NW 4.5 km/h 24.1 km/h 37% 0 mm 158 W/m2
12:59 -7.8 °C -20 °C 1023.6 hPa NW 7.7 km/h 24.1 km/h 36.8% 0 mm 174 W/m2
13:04 -7.8 °C -19.8 °C 1023.9 hPa NW 7.2 km/h 24.1 km/h 37.5% 0 mm 174 W/m2
13:09 -7.8 °C -20.1 °C 1023.9 hPa NW 9.8 km/h 30.6 km/h 36.7% 0 mm 183 W/m2
13:14 -7.9 °C -20.3 °C 1023.9 hPa NW 15.1 km/h 30.6 km/h 36.1% 0 mm 218 W/m2
13:19 -7.9 °C -20.4 °C 1023.9 hPa NNW 8.5 km/h 30.6 km/h 35.8% 0 mm 294 W/m2
13:24 -7.8 °C -20.2 °C 1023.9 hPa NNW 10.5 km/h 30.6 km/h 36.2% 0 mm 299 W/m2
13:29 -7.6 °C -19.9 °C 1023.9 hPa NNW 10.3 km/h 30.6 km/h 36.5% 0 mm 373 W/m2
13:34 -7.4 °C -20 °C 1023.9 hPa NW 12.2 km/h 30.6 km/h 35.8% 0 mm 385 W/m2
13:39 -7.5 °C -20.3 °C 1023.6 hPa NW 9 km/h 25.7 km/h 35.1% 0 mm 130 W/m2
13:44 -7.4 °C -19.9 °C 1023.6 hPa NW 7.9 km/h 25.7 km/h 36% 0 mm 114 W/m2
13:49 -7.5 °C -20.2 °C 1023.6 hPa NNW 10.5 km/h 25.7 km/h 35.5% 0 mm 120 W/m2
13:54 -7.7 °C -20.7 °C 1023.6 hPa NW 14 km/h 25.7 km/h 34.3% 0 mm 128 W/m2
13:59 -7.9 °C -20.7 °C 1023.6 hPa NNW 10.9 km/h 25.7 km/h 35.1% 0 mm 149 W/m2
14:04 -7.9 °C -20.4 °C 1023.6 hPa NNW 10.3 km/h 25.7 km/h 36.1% 0 mm 141 W/m2
14:09 -7.9 °C -20.4 °C 1023.9 hPa NNW 8.7 km/h 22.5 km/h 35.7% 0 mm 195 W/m2
14:14 -7.8 °C -20.2 °C 1023.9 hPa NNW 8.2 km/h 22.5 km/h 36% 0 mm 230 W/m2
14:19 -7.7 °C -20.4 °C 1023.9 hPa NNW 11.7 km/h 27.4 km/h 35.5% 0 mm 179 W/m2
14:24 -7.8 °C -20.6 °C 1023.9 hPa NW 13 km/h 27.4 km/h 35% 0 mm 98 W/m2
14:29 -8 °C -20.7 °C 1023.9 hPa NNW 9.7 km/h 27.4 km/h 35.4% 0 mm 113 W/m2
14:34 -8.1 °C -20.7 °C 1023.9 hPa NNW 6.6 km/h 27.4 km/h 35.5% 0 mm 113 W/m2
14:39 -8.1 °C -20.2 °C 1023.9 hPa WNW 5.3 km/h 17.7 km/h 36.8% 0 mm 70 W/m2
14:44 -8 °C -20.1 °C 1024.3 hPa NW 7.6 km/h 20.9 km/h 37.2% 0 mm 113 W/m2
14:49 -7.9 °C -20.1 °C 1024.3 hPa NNW 9.8 km/h 29 km/h 37.1% 0 mm 123 W/m2
14:54 -7.9 °C -20.7 °C 1024.3 hPa NNW 8.9 km/h 29 km/h 35.2% 0 mm 98 W/m2
14:59 -8 °C -20.4 °C 1024.3 hPa NW 7.6 km/h 29 km/h 36% 0 mm 81 W/m2
15:04 -7.9 °C -20.2 °C 1024.3 hPa NNW 8.2 km/h 29 km/h 36.5% 0 mm 81 W/m2
15:09 -8 °C -20.3 °C 1024.6 hPa NNW 6.4 km/h 25.7 km/h 36.4% 0 mm 76 W/m2
15:14 -8.1 °C -20.2 °C 1024.6 hPa NW 5 km/h 25.7 km/h 37% 0 mm 76 W/m2
15:19 -8.1 °C -20.2 °C 1024.6 hPa NNW 5 km/h 25.7 km/h 37.1% 0 mm 76 W/m2
15:24 -8.1 °C -20.1 °C 1024.9 hPa NW 9.8 km/h 25.7 km/h 37.4% 0 mm 74 W/m2
15:29 -8.1 °C -20.3 °C 1024.9 hPa NNW 8.4 km/h 25.7 km/h 36.6% 0 mm 74 W/m2
15:34 -8.2 °C -20.4 °C 1024.9 hPa NW 10.8 km/h 25.7 km/h 36.7% 0 mm 69 W/m2
15:39 -8.3 °C -20.7 °C 1025.3 hPa NW 9.3 km/h 24.1 km/h 36.2% 0 mm 62 W/m2
15:44 -8.5 °C -20.6 °C 1025.3 hPa NW 7.7 km/h 24.1 km/h 37% 0 mm 53 W/m2
15:49 -8.6 °C -20.7 °C 1025.6 hPa NNW 10.8 km/h 27.4 km/h 36.7% 0 mm 49 W/m2
15:54 -8.7 °C -20.9 °C 1025.6 hPa NW 10.6 km/h 29 km/h 36.5% 0 mm 49 W/m2
15:59 -8.8 °C -20.9 °C 1025.6 hPa NNW 7.6 km/h 29 km/h 36.9% 0 mm 46 W/m2
16:00 -8.8 °C -20.9 °C 1025.3 hPa NNW 6.4 km/h 29 km/h 37% 0 mm 40 W/m2
16:09 -8.9 °C -20.6 °C 1025.6 hPa NW 7.4 km/h 14.5 km/h 38.1% 0 mm 32 W/m2
16:14 -8.9 °C -20.4 °C 1025.6 hPa NNW 6 km/h 14.5 km/h 39% 0 mm 26 W/m2
16:19 -9 °C -20.2 °C 1025.6 hPa NW 8.5 km/h 17.7 km/h 40% 0 mm 19 W/m2
16:24 -9.2 °C -20.2 °C 1026 hPa NW 4.2 km/h 17.7 km/h 40.4% 0 mm 11 W/m2
16:29 -9.3 °C -20.1 °C 1026 hPa WNW 7.6 km/h 19.3 km/h 41% 0 mm 9 W/m2
16:34 -9.4 °C -20.2 °C 1026 hPa WNW 8.5 km/h 22.5 km/h 41.2% 0 mm 7 W/m2
16:39 -9.6 °C -20.2 °C 1026 hPa WNW 10.1 km/h 22.5 km/h 41.9% 0 mm 0 W/m2
16:44 -9.8 °C -20.3 °C 1026 hPa WNW 9.7 km/h 22.5 km/h 42% 0 mm 0 W/m2
16:49 -9.9 °C -20.2 °C 1025.6 hPa WNW 6.6 km/h 22.5 km/h 42.8% 0 mm 0 W/m2
16:54 -9.9 °C -20.2 °C 1026 hPa WNW 6.4 km/h 22.5 km/h 43.1% 0 mm 0 W/m2
16:59 -10 °C -19.9 °C 1026 hPa WNW 5.8 km/h 22.5 km/h 44% 0 mm 0 W/m2
17:04 -10.1 °C -20 °C 1026 hPa WNW 6.3 km/h 22.5 km/h 44% 0 mm 0 W/m2
17:09 -10.1 °C -20.1 °C 1026 hPa WNW 6.8 km/h 17.7 km/h 44% 0 mm 0 W/m2
17:14 -10.2 °C -20.1 °C 1026.3 hPa NW 8.5 km/h 17.7 km/h 44% 0 mm 0 W/m2
17:19 -10.2 °C -19.8 °C 1026.3 hPa NW 5.8 km/h 17.7 km/h 45.3% 0 mm 0 W/m2
17:24 -10.3 °C -19.9 °C 1026.3 hPa WNW 6.8 km/h 17.7 km/h 45% 0 mm 0 W/m2
17:29 -10.3 °C -20.1 °C 1026.3 hPa NW 7.7 km/h 17.7 km/h 44.4% 0 mm 0 W/m2
17:34 -10.4 °C -20.3 °C 1026.3 hPa WNW 8.7 km/h 19.3 km/h 44% 0 mm 0 W/m2
17:39 -10.4 °C -20.3 °C 1026.6 hPa NW 2.6 km/h 19.3 km/h 44.4% 0 mm 0 W/m2
17:44 -10.5 °C -20.1 °C 1026.6 hPa WNW 6.4 km/h 19.3 km/h 45% 0 mm 0 W/m2
17:49 -10.6 °C -20.2 °C 1027 hPa WNW 5.8 km/h 19.3 km/h 45% 0 mm 0 W/m2
17:54 -10.6 °C -20.2 °C 1027 hPa WNW 6.6 km/h 19.3 km/h 45% 0 mm 0 W/m2
17:59 -10.6 °C -20.1 °C 1027 hPa WNW 7.1 km/h 19.3 km/h 45.5% 0 mm 0 W/m2
18:04 -10.7 °C -20.2 °C 1027 hPa WNW 5.1 km/h 19.3 km/h 45.2% 0 mm 0 W/m2
18:09 -10.7 °C -20.3 °C 1027 hPa NW 10.3 km/h 22.5 km/h 45% 0 mm 0 W/m2
18:14 -10.8 °C -20.6 °C 1027 hPa NW 7.9 km/h 22.5 km/h 44.3% 0 mm 0 W/m2
18:19 -10.8 °C -20.5 °C 1027.3 hPa NW 6.3 km/h 22.5 km/h 44.7% 0 mm 0 W/m2
18:24 -10.9 °C -20.5 °C 1027 hPa NW 8.5 km/h 22.5 km/h 45% 0 mm 0 W/m2
18:29 -10.9 °C -20.6 °C 1027 hPa NW 8.5 km/h 22.5 km/h 45% 0 mm 0 W/m2
18:34 -11.1 °C -20.6 °C 1027 hPa NW 5.6 km/h 22.5 km/h 45.1% 0 mm 0 W/m2
18:39 -11.1 °C -20.6 °C 1027 hPa NW 2.4 km/h 14.5 km/h 45.3% 0 mm 0 W/m2
18:44 -11.2 °C -20.5 °C 1027.3 hPa NW 2.6 km/h 14.5 km/h 46% 0 mm 0 W/m2
18:49 -11.2 °C -20.5 °C 1027.3 hPa NW 2.6 km/h 14.5 km/h 46% 0 mm 0 W/m2
18:54 -11.2 °C -20.6 °C 1027.3 hPa NW 2.4 km/h 14.5 km/h 46% 0 mm 0 W/m2
18:59 -11.3 °C -20.6 °C 1027.3 hPa NW 2.3 km/h 14.5 km/h 46% 0 mm 0 W/m2
19:04 -11.3 °C -20.4 °C 1027.3 hPa NW 4.3 km/h 16.1 km/h 46.9% 0 mm 0 W/m2
19:09 -11.4 °C -20.4 °C 1027.3 hPa NW 2.1 km/h 16.1 km/h 47% 0 mm 0 W/m2
19:14 -11.4 °C -20.4 °C 1027.3 hPa NW 5.6 km/h 16.1 km/h 47% 0 mm 0 W/m2
19:19 -11.4 °C -20.4 °C 1027.3 hPa NW 4 km/h 16.1 km/h 47.4% 0 mm 0 W/m2
19:24 -11.4 °C -20.3 °C 1027.7 hPa NW 3.5 km/h 16.1 km/h 48% 0 mm 0 W/m2
19:29 -11.4 °C -20.3 °C 1027.7 hPa NNW 1.8 km/h 16.1 km/h 47.8% 0 mm 0 W/m2
19:34 -11.5 °C -20.5 °C 1027.7 hPa NNW 0.3 km/h 16.1 km/h 47.1% 0 mm 0 W/m2
19:39 -11.5 °C -20.3 °C 1027.7 hPa NNW 2.9 km/h 8 km/h 48% 0 mm 0 W/m2
19:44 -11.6 °C -20.3 °C 1027.7 hPa NNW 1.1 km/h 8 km/h 48% 0 mm 0 W/m2
19:49 -11.6 °C -20.4 °C 1027.7 hPa NNW 2.9 km/h 9.7 km/h 48% 0 mm 0 W/m2
19:54 -11.6 °C -20.4 °C 1028 hPa NW 1.1 km/h 9.7 km/h 48% 0 mm 0 W/m2
19:59 -11.6 °C -20.2 °C 1028 hPa NW 2.3 km/h 9.7 km/h 48.8% 0 mm 0 W/m2
20:09 -11.7 °C -20.3 °C 1028.3 hPa Calm   1.6 km/h 49% 0 mm 0 W/m2
20:14 -11.8 °C -20.3 °C 1028.3 hPa Calm   1.6 km/h 49% 0 mm 0 W/m2
20:19 -11.8 °C -20.4 °C 1028.3 hPa NW 0.5 km/h 4.8 km/h 49% 0 mm 0 W/m2
20:24 -11.9 °C -20.2 °C 1028.3 hPa NW 2.6 km/h 8 km/h 49.8% 0 mm 0 W/m2
20:29 -11.9 °C -20.2 °C 1028.3 hPa NW 1.3 km/h 8 km/h 50% 0 mm 0 W/m2
20:34 -11.9 °C -20.1 °C 1028.3 hPa NW 2.3 km/h 11.3 km/h 50.5% 0 mm 0 W/m2
20:39 -12 °C -20.3 °C 1028.3 hPa NW 1.3 km/h 11.3 km/h 50% 0 mm 0 W/m2
20:44 -12.1 °C -20.3 °C 1028.3 hPa NW 1.3 km/h 11.3 km/h 50.3% 0 mm 0 W/m2
20:49 -12.1 °C -20.3 °C 1028.7 hPa NW 0.3 km/h 11.3 km/h 50.4% 0 mm 0 W/m2
20:54 -12.1 °C -20.3 °C 1028.7 hPa NW 0.6 km/h 11.3 km/h 50.4% 0 mm 0 W/m2
20:59 -12.1 °C -20.2 °C 1028.7 hPa NW 0.3 km/h 11.3 km/h 51% 0 mm 0 W/m2
21:04 -12.2 °C -20.2 °C 1028.7 hPa NW 2.4 km/h 11.3 km/h 51.2% 0 mm 0 W/m2
21:09 -12.2 °C -20.1 °C 1028.7 hPa NW 1.8 km/h 8 km/h 51.8% 0 mm 0 W/m2
21:14 -12.2 °C -20.2 °C 1028.7 hPa NW 2.4 km/h 9.7 km/h 51.2% 0 mm 0 W/m2
21:19 -12.2 °C -20.3 °C 1028.7 hPa NW 2.4 km/h 9.7 km/h 51% 0 mm 0 W/m2
21:24 -12.3 °C -20.3 °C 1028.7 hPa Calm   9.7 km/h 51% 0 mm 0 W/m2
21:29 -12.3 °C -20.3 °C 1028.7 hPa NW 0.5 km/h 9.7 km/h 51% 0 mm 0 W/m2
21:34 -12.3 °C -20.2 °C 1028.7 hPa Calm   9.7 km/h 51.7% 0 mm 0 W/m2
21:39 -12.3 °C -20.2 °C 1028.7 hPa Calm   1.6 km/h 52% 0 mm 0 W/m2
21:44 -12.4 °C -20.1 °C 1028.7 hPa Calm   1.6 km/h 52.7% 0 mm 0 W/m2
21:49 -12.4 °C -19.9 °C 1029 hPa Calm   1.6 km/h 53.5% 0 mm 0 W/m2
21:54 -12.6 °C -20.1 °C 1029 hPa Calm   1.6 km/h 53.4% 0 mm 0 W/m2
21:59 -12.6 °C -19.9 °C 1029 hPa NW 0.2 km/h 3.2 km/h 54.1% 0 mm 0 W/m2
22:04 -12.7 °C -19.8 °C 1029 hPa NW 0.2 km/h 3.2 km/h 55% 0 mm 0 W/m2
22:09 -12.7 °C -19.9 °C 1029 hPa NW 0.2 km/h 3.2 km/h 55% 0 mm 0 W/m2
22:14 -12.8 °C -19.8 °C 1029 hPa NW 1.1 km/h 6.4 km/h 55.9% 0 mm 0 W/m2
22:19 -12.8 °C -19.9 °C 1029 hPa Calm   6.4 km/h 55% 0 mm 0 W/m2
22:24 -12.8 °C -20 °C 1029 hPa NW 0.3 km/h 6.4 km/h 55% 0 mm 0 W/m2
22:29 -12.9 °C -20.1 °C 1029.3 hPa NW 1.3 km/h 6.4 km/h 55% 0 mm 0 W/m2
22:34 -12.9 °C -20 °C 1029.3 hPa NW 1 km/h 6.4 km/h 55.3% 0 mm 0 W/m2
22:39 -12.9 °C -19.9 °C 1029.3 hPa NW 1 km/h 4.8 km/h 56% 0 mm 0 W/m2
22:44 -13 °C -19.9 °C 1029.3 hPa NW 0.6 km/h 4.8 km/h 56% 0 mm 0 W/m2
22:49 -13 °C -19.9 °C 1029.3 hPa NW 1 km/h 8 km/h 56% 0 mm 0 W/m2
22:54 -13 °C -19.9 °C 1029.3 hPa Calm   8 km/h 56% 0 mm 0 W/m2
22:59 -13.1 °C -19.8 °C 1029.3 hPa NW 1.1 km/h 8 km/h 56.8% 0 mm 0 W/m2
23:09 -13.1 °C -19.8 °C 1029.7 hPa Calm     57% 0 mm 0 W/m2
23:14 -13.2 °C -19.9 °C 1029.7 hPa Calm     57% 0 mm 0 W/m2
23:19 -13.2 °C -19.9 °C 1029.7 hPa Calm     57% 0 mm 0 W/m2
23:24 -13.2 °C -19.7 °C 1029.7 hPa NW 0.2 km/h 1.6 km/h 58% 0 mm 0 W/m2
23:29 -13.3 °C -19.7 °C 1029.7 hPa Calm   1.6 km/h 58.7% 0 mm 0 W/m2
23:34 -13.3 °C -19.6 °C 1029.7 hPa NW 0.2 km/h 1.6 km/h 59.1% 0 mm 0 W/m2
23:39 -13.4 °C -19.5 °C 1029.7 hPa Calm   1.6 km/h 60% 0 mm 0 W/m2
23:44 -13.4 °C -19.6 °C 1030 hPa Calm   1.6 km/h 60% 0 mm 0 W/m2
23:49 -13.5 °C -19.6 °C 1030.7 hPa Calm   1.6 km/h 60% 0 mm 0 W/m2
23:54 -13.5 °C -19.4 °C 1030.7 hPa Calm   1.6 km/h 60.9% 0 mm 0 W/m2
23:59 -13.6 °C -19.3 °C 1029.7 hPa Calm   1.6 km/h 61.5% 0 mm 0 W/m2
Hartford County Weather
Compliments of Weather Underground - 4 mb